sensor_id;sensor_type;location;lat;lon;timestamp;temperature;humidity
12111;DHT22;6119;52.372;8.990;2023-10-13T00:02:14;16.90;99.90
12111;DHT22;6119;52.372;8.990;2023-10-13T00:05:06;16.90;99.90
12111;DHT22;6119;52.372;8.990;2023-10-13T00:07:54;16.90;99.90
12111;DHT22;6119;52.372;8.990;2023-10-13T00:10:42;17.00;99.90
12111;DHT22;6119;52.372;8.990;2023-10-13T00:13:29;17.00;99.90
12111;DHT22;6119;52.372;8.990;2023-10-13T00:16:23;17.00;99.90
12111;DHT22;6119;52.372;8.990;2023-10-13T00:19:12;17.00;99.90
12111;DHT22;6119;52.372;8.990;2023-10-13T00:22:01;17.00;99.90
12111;DHT22;6119;52.372;8.990;2023-10-13T00:24:54;17.10;99.90
12111;DHT22;6119;52.372;8.990;2023-10-13T00:27:45;17.00;99.90
12111;DHT22;6119;52.372;8.990;2023-10-13T00:30:37;17.10;99.90
12111;DHT22;6119;52.372;8.990;2023-10-13T00:33:24;17.10;99.90
12111;DHT22;6119;52.372;8.990;2023-10-13T00:36:11;17.10;99.90
12111;DHT22;6119;52.372;8.990;2023-10-13T00:39:05;17.10;99.90
12111;DHT22;6119;52.372;8.990;2023-10-13T00:41:52;17.20;99.90
12111;DHT22;6119;52.372;8.990;2023-10-13T00:44:43;17.20;99.90
12111;DHT22;6119;52.372;8.990;2023-10-13T00:47:30;17.20;99.90
12111;DHT22;6119;52.372;8.990;2023-10-13T00:50:23;17.20;99.90
12111;DHT22;6119;52.372;8.990;2023-10-13T00:53:09;17.20;99.90
12111;DHT22;6119;52.372;8.990;2023-10-13T00:55:58;17.20;99.90
12111;DHT22;6119;52.372;8.990;2023-10-13T00:58:51;17.20;99.90
12111;DHT22;6119;52.372;8.990;2023-10-13T01:01:38;17.20;99.90
12111;DHT22;6119;52.372;8.990;2023-10-13T01:04:28;17.20;99.90
12111;DHT22;6119;52.372;8.990;2023-10-13T01:07:17;17.30;99.90
12111;DHT22;6119;52.372;8.990;2023-10-13T01:10:09;17.20;99.90
12111;DHT22;6119;52.372;8.990;2023-10-13T01:13:00;17.20;99.90
12111;DHT22;6119;52.372;8.990;2023-10-13T01:15:48;17.20;99.90
12111;DHT22;6119;52.372;8.990;2023-10-13T01:18:35;17.30;99.90
12111;DHT22;6119;52.372;8.990;2023-10-13T01:21:32;17.30;99.90
12111;DHT22;6119;52.372;8.990;2023-10-13T01:24:20;17.30;99.90
12111;DHT22;6119;52.372;8.990;2023-10-13T01:27:11;17.30;99.90
12111;DHT22;6119;52.372;8.990;2023-10-13T01:30:05;17.30;99.90
12111;DHT22;6119;52.372;8.990;2023-10-13T01:32:55;17.30;99.90
12111;DHT22;6119;52.372;8.990;2023-10-13T01:35:46;17.30;99.90
12111;DHT22;6119;52.372;8.990;2023-10-13T01:38:32;17.30;99.90
12111;DHT22;6119;52.372;8.990;2023-10-13T01:41:22;17.30;99.90
12111;DHT22;6119;52.372;8.990;2023-10-13T01:44:08;17.30;99.90
12111;DHT22;6119;52.372;8.990;2023-10-13T01:46:57;17.30;99.90
12111;DHT22;6119;52.372;8.990;2023-10-13T01:49:44;17.30;99.90
12111;DHT22;6119;52.372;8.990;2023-10-13T01:52:36;17.30;99.90
12111;DHT22;6119;52.372;8.990;2023-10-13T01:55:21;17.40;99.90
12111;DHT22;6119;52.372;8.990;2023-10-13T01:58:10;17.40;99.90
12111;DHT22;6119;52.372;8.990;2023-10-13T02:01:00;17.40;99.90
12111;DHT22;6119;52.372;8.990;2023-10-13T02:03:47;17.40;99.90
12111;DHT22;6119;52.372;8.990;2023-10-13T02:06:35;17.40;99.90
12111;DHT22;6119;52.372;8.990;2023-10-13T02:09:22;17.40;99.90
12111;DHT22;6119;52.372;8.990;2023-10-13T02:12:11;17.40;99.90
12111;DHT22;6119;52.372;8.990;2023-10-13T02:14:58;17.40;99.90
12111;DHT22;6119;52.372;8.990;2023-10-13T02:17:46;17.40;99.90
12111;DHT22;6119;52.372;8.990;2023-10-13T02:20:37;17.40;99.90
12111;DHT22;6119;52.372;8.990;2023-10-13T02:23:28;17.40;99.90
12111;DHT22;6119;52.372;8.990;2023-10-13T02:26:14;17.40;99.90
12111;DHT22;6119;52.372;8.990;2023-10-13T02:29:02;17.50;99.90
12111;DHT22;6119;52.372;8.990;2023-10-13T02:31:51;17.40;99.90
12111;DHT22;6119;52.372;8.990;2023-10-13T02:34:41;17.40;99.90
12111;DHT22;6119;52.372;8.990;2023-10-13T02:37:29;17.40;99.90
12111;DHT22;6119;52.372;8.990;2023-10-13T02:40:16;17.50;99.90
12111;DHT22;6119;52.372;8.990;2023-10-13T02:43:09;17.50;99.90
12111;DHT22;6119;52.372;8.990;2023-10-13T02:45:57;17.50;99.90
12111;DHT22;6119;52.372;8.990;2023-10-13T02:48:46;17.40;99.90
12111;DHT22;6119;52.372;8.990;2023-10-13T02:51:38;17.50;99.90
12111;DHT22;6119;52.372;8.990;2023-10-13T02:54:27;17.50;99.90
12111;DHT22;6119;52.372;8.990;2023-10-13T02:57:17;17.50;99.90
12111;DHT22;6119;52.372;8.990;2023-10-13T03:00:03;17.50;99.90
12111;DHT22;6119;52.372;8.990;2023-10-13T03:02:58;17.50;99.90
12111;DHT22;6119;52.372;8.990;2023-10-13T03:05:46;17.50;99.90
12111;DHT22;6119;52.372;8.990;2023-10-13T03:08:33;17.50;99.90
12111;DHT22;6119;52.372;8.990;2023-10-13T03:11:22;17.50;99.90
12111;DHT22;6119;52.372;8.990;2023-10-13T03:14:10;17.50;99.90
12111;DHT22;6119;52.372;8.990;2023-10-13T03:17:09;17.50;99.90
12111;DHT22;6119;52.372;8.990;2023-10-13T03:20:00;17.50;99.90
12111;DHT22;6119;52.372;8.990;2023-10-13T03:22:53;17.50;99.90
12111;DHT22;6119;52.372;8.990;2023-10-13T03:25:39;17.50;99.90
12111;DHT22;6119;52.372;8.990;2023-10-13T03:28:29;17.50;99.90
12111;DHT22;6119;52.372;8.990;2023-10-13T03:31:20;17.60;99.90
12111;DHT22;6119;52.372;8.990;2023-10-13T03:34:13;17.60;99.90
12111;DHT22;6119;52.372;8.990;2023-10-13T03:37:00;17.60;99.90
12111;DHT22;6119;52.372;8.990;2023-10-13T03:39:57;17.60;99.90
12111;DHT22;6119;52.372;8.990;2023-10-13T03:42:45;17.60;99.90
12111;DHT22;6119;52.372;8.990;2023-10-13T03:45:45;17.60;99.90
12111;DHT22;6119;52.372;8.990;2023-10-13T03:48:34;17.60;99.90
12111;DHT22;6119;52.372;8.990;2023-10-13T03:51:37;17.60;99.90
12111;DHT22;6119;52.372;8.990;2023-10-13T03:54:24;17.70;99.90
12111;DHT22;6119;52.372;8.990;2023-10-13T03:57:16;17.60;99.90
12111;DHT22;6119;52.372;8.990;2023-10-13T04:00:04;17.60;99.90
12111;DHT22;6119;52.372;8.990;2023-10-13T04:02:54;17.70;99.90
12111;DHT22;6119;52.372;8.990;2023-10-13T04:05:54;17.70;99.90
12111;DHT22;6119;52.372;8.990;2023-10-13T04:08:51;17.70;99.90
12111;DHT22;6119;52.372;8.990;2023-10-13T04:11:52;17.70;99.90
12111;DHT22;6119;52.372;8.990;2023-10-13T04:14:54;17.60;99.90
12111;DHT22;6119;52.372;8.990;2023-10-13T04:17:59;17.70;99.90
12111;DHT22;6119;52.372;8.990;2023-10-13T04:20:53;17.70;99.90
12111;DHT22;6119;52.372;8.990;2023-10-13T04:23:49;17.70;99.90
12111;DHT22;6119;52.372;8.990;2023-10-13T04:26:53;17.70;99.90
12111;DHT22;6119;52.372;8.990;2023-10-13T04:29:58;17.60;99.90
12111;DHT22;6119;52.372;8.990;2023-10-13T04:32:56;17.60;99.90
12111;DHT22;6119;52.372;8.990;2023-10-13T04:36:02;17.70;99.90
12111;DHT22;6119;52.372;8.990;2023-10-13T04:39:00;17.70;99.90
12111;DHT22;6119;52.372;8.990;2023-10-13T04:41:54;17.70;99.90
12111;DHT22;6119;52.372;8.990;2023-10-13T04:44:43;17.70;99.90
12111;DHT22;6119;52.372;8.990;2023-10-13T04:47:42;17.70;99.90
12111;DHT22;6119;52.372;8.990;2023-10-13T04:50:47;17.70;99.90
12111;DHT22;6119;52.372;8.990;2023-10-13T04:53:35;17.70;99.90
12111;DHT22;6119;52.372;8.990;2023-10-13T04:56:42;17.70;99.90
12111;DHT22;6119;52.372;8.990;2023-10-13T05:00:01;17.70;99.90
12111;DHT22;6119;52.372;8.990;2023-10-13T05:03:12;17.70;99.90
12111;DHT22;6119;52.372;8.990;2023-10-13T05:06:36;17.70;99.90
12111;DHT22;6119;52.372;8.990;2023-10-13T05:09:41;17.70;99.90
12111;DHT22;6119;52.372;8.990;2023-10-13T05:12:45;17.70;99.90
12111;DHT22;6119;52.372;8.990;2023-10-13T05:15:50;17.70;99.90
12111;DHT22;6119;52.372;8.990;2023-10-13T05:18:56;17.70;99.90
12111;DHT22;6119;52.372;8.990;2023-10-13T05:22:00;17.70;99.90
12111;DHT22;6119;52.372;8.990;2023-10-13T05:25:05;17.70;99.90
12111;DHT22;6119;52.372;8.990;2023-10-13T05:28:09;17.70;99.90
12111;DHT22;6119;52.372;8.990;2023-10-13T05:31:20;17.80;99.90
12111;DHT22;6119;52.372;8.990;2023-10-13T05:34:26;17.80;99.90
12111;DHT22;6119;52.372;8.990;2023-10-13T05:37:30;17.80;99.90
12111;DHT22;6119;52.372;8.990;2023-10-13T05:40:31;17.80;99.90
12111;DHT22;6119;52.372;8.990;2023-10-13T05:43:35;17.80;99.90
12111;DHT22;6119;52.372;8.990;2023-10-13T05:46:39;17.80;99.90
12111;DHT22;6119;52.372;8.990;2023-10-13T05:49:45;17.80;99.90
12111;DHT22;6119;52.372;8.990;2023-10-13T05:52:50;17.80;99.90
12111;DHT22;6119;52.372;8.990;2023-10-13T05:56:00;17.80;99.90
12111;DHT22;6119;52.372;8.990;2023-10-13T05:59:04;17.80;99.90
12111;DHT22;6119;52.372;8.990;2023-10-13T06:02:08;17.80;99.90
12111;DHT22;6119;52.372;8.990;2023-10-13T06:05:14;17.80;99.90
12111;DHT22;6119;52.372;8.990;2023-10-13T06:08:18;17.80;99.90
12111;DHT22;6119;52.372;8.990;2023-10-13T06:11:22;17.80;99.90
12111;DHT22;6119;52.372;8.990;2023-10-13T06:14:27;17.90;99.90
12111;DHT22;6119;52.372;8.990;2023-10-13T06:17:31;17.80;99.90
12111;DHT22;6119;52.372;8.990;2023-10-13T06:20:40;17.90;99.90
12111;DHT22;6119;52.372;8.990;2023-10-13T06:23:44;17.80;99.90
12111;DHT22;6119;52.372;8.990;2023-10-13T06:26:48;17.80;99.90
12111;DHT22;6119;52.372;8.990;2023-10-13T06:29:52;17.80;99.90
12111;DHT22;6119;52.372;8.990;2023-10-13T06:32:39;17.70;99.90
12111;DHT22;6119;52.372;8.990;2023-10-13T06:35:27;17.70;99.90
12111;DHT22;6119;52.372;8.990;2023-10-13T06:38:15;17.80;99.90
12111;DHT22;6119;52.372;8.990;2023-10-13T06:41:07;17.80;99.90
12111;DHT22;6119;52.372;8.990;2023-10-13T06:43:54;17.80;99.90
12111;DHT22;6119;52.372;8.990;2023-10-13T06:46:45;17.80;99.90
12111;DHT22;6119;52.372;8.990;2023-10-13T06:49:35;17.70;99.90
12111;DHT22;6119;52.372;8.990;2023-10-13T06:52:24;17.70;99.90
12111;DHT22;6119;52.372;8.990;2023-10-13T06:55:17;17.70;99.90
12111;DHT22;6119;52.372;8.990;2023-10-13T06:58:08;17.70;99.90
12111;DHT22;6119;52.372;8.990;2023-10-13T07:00:59;17.70;99.90
12111;DHT22;6119;52.372;8.990;2023-10-13T07:03:47;17.70;99.90
12111;DHT22;6119;52.372;8.990;2023-10-13T07:06:39;17.70;99.90
12111;DHT22;6119;52.372;8.990;2023-10-13T07:09:27;17.70;99.90
12111;DHT22;6119;52.372;8.990;2023-10-13T07:12:32;17.70;99.90
12111;DHT22;6119;52.372;8.990;2023-10-13T07:15:19;17.70;99.90
12111;DHT22;6119;52.372;8.990;2023-10-13T07:18:05;17.60;99.90
12111;DHT22;6119;52.372;8.990;2023-10-13T07:20:52;17.70;99.90
12111;DHT22;6119;52.372;8.990;2023-10-13T07:23:43;17.70;99.90
12111;DHT22;6119;52.372;8.990;2023-10-13T07:26:46;17.70;99.90
12111;DHT22;6119;52.372;8.990;2023-10-13T07:29:35;17.80;99.90
12111;DHT22;6119;52.372;8.990;2023-10-13T07:32:23;17.80;99.90
12111;DHT22;6119;52.372;8.990;2023-10-13T07:35:12;17.80;99.90
12111;DHT22;6119;52.372;8.990;2023-10-13T07:38:01;17.80;99.90
12111;DHT22;6119;52.372;8.990;2023-10-13T07:40:53;17.90;99.90
12111;DHT22;6119;52.372;8.990;2023-10-13T07:43:40;17.90;99.90
12111;DHT22;6119;52.372;8.990;2023-10-13T07:46:28;17.90;99.90
12111;DHT22;6119;52.372;8.990;2023-10-13T07:49:16;18.00;99.90
12111;DHT22;6119;52.372;8.990;2023-10-13T07:52:08;18.10;99.90
12111;DHT22;6119;52.372;8.990;2023-10-13T07:55:16;18.10;99.90
12111;DHT22;6119;52.372;8.990;2023-10-13T07:58:06;18.20;99.90
12111;DHT22;6119;52.372;8.990;2023-10-13T08:00:53;18.20;99.90
12111;DHT22;6119;52.372;8.990;2023-10-13T08:03:53;18.30;99.90
12111;DHT22;6119;52.372;8.990;2023-10-13T08:06:50;18.40;99.90
12111;DHT22;6119;52.372;8.990;2023-10-13T08:09:47;18.40;99.90
12111;DHT22;6119;52.372;8.990;2023-10-13T08:12:37;18.40;99.90
12111;DHT22;6119;52.372;8.990;2023-10-13T08:15:27;18.50;99.90
12111;DHT22;6119;52.372;8.990;2023-10-13T08:18:19;18.50;99.90
12111;DHT22;6119;52.372;8.990;2023-10-13T08:21:16;18.50;99.90
12111;DHT22;6119;52.372;8.990;2023-10-13T08:24:08;18.60;99.90
12111;DHT22;6119;52.372;8.990;2023-10-13T08:26:55;18.60;99.90
12111;DHT22;6119;52.372;8.990;2023-10-13T08:30:01;18.60;99.90
12111;DHT22;6119;52.372;8.990;2023-10-13T08:33:05;18.70;99.90
12111;DHT22;6119;52.372;8.990;2023-10-13T08:36:03;18.70;99.90
12111;DHT22;6119;52.372;8.990;2023-10-13T08:39:14;18.70;99.90
12111;DHT22;6119;52.372;8.990;2023-10-13T08:42:30;18.70;99.90
12111;DHT22;6119;52.372;8.990;2023-10-13T08:45:27;18.70;99.90
12111;DHT22;6119;52.372;8.990;2023-10-13T08:48:28;18.80;99.90
12111;DHT22;6119;52.372;8.990;2023-10-13T08:51:18;18.80;99.90
12111;DHT22;6119;52.372;8.990;2023-10-13T08:54:22;18.80;99.90
12111;DHT22;6119;52.372;8.990;2023-10-13T08:57:23;18.90;99.90
12111;DHT22;6119;52.372;8.990;2023-10-13T09:00:24;18.90;99.90
12111;DHT22;6119;52.372;8.990;2023-10-13T09:03:24;19.00;99.90
12111;DHT22;6119;52.372;8.990;2023-10-13T09:06:14;19.00;99.90
12111;DHT22;6119;52.372;8.990;2023-10-13T09:09:07;19.10;99.90
12111;DHT22;6119;52.372;8.990;2023-10-13T09:11:55;19.10;99.90
12111;DHT22;6119;52.372;8.990;2023-10-13T09:14:55;19.20;99.90
12111;DHT22;6119;52.372;8.990;2023-10-13T09:17:45;19.20;99.90
12111;DHT22;6119;52.372;8.990;2023-10-13T09:20:34;19.20;99.90
12111;DHT22;6119;52.372;8.990;2023-10-13T09:23:28;19.30;99.90
12111;DHT22;6119;52.372;8.990;2023-10-13T09:26:33;19.30;99.90
12111;DHT22;6119;52.372;8.990;2023-10-13T09:29:24;19.30;99.90
12111;DHT22;6119;52.372;8.990;2023-10-13T09:32:10;19.40;99.90
12111;DHT22;6119;52.372;8.990;2023-10-13T09:35:01;19.50;99.90
12111;DHT22;6119;52.372;8.990;2023-10-13T09:37:49;19.60;99.90
12111;DHT22;6119;52.372;8.990;2023-10-13T09:40:35;19.70;99.90
12111;DHT22;6119;52.372;8.990;2023-10-13T09:43:24;19.70;99.90
12111;DHT22;6119;52.372;8.990;2023-10-13T09:46:19;19.90;99.90
12111;DHT22;6119;52.372;8.990;2023-10-13T09:49:12;20.00;99.90
12111;DHT22;6119;52.372;8.990;2023-10-13T09:52:07;20.10;99.90
12111;DHT22;6119;52.372;8.990;2023-10-13T09:55:09;20.10;99.90
12111;DHT22;6119;52.372;8.990;2023-10-13T09:58:03;20.10;99.90
12111;DHT22;6119;52.372;8.990;2023-10-13T10:00:57;20.20;99.90
12111;DHT22;6119;52.372;8.990;2023-10-13T10:03:53;20.20;99.90
12111;DHT22;6119;52.372;8.990;2023-10-13T10:06:53;20.30;99.90
12111;DHT22;6119;52.372;8.990;2023-10-13T10:09:40;20.30;99.90
12111;DHT22;6119;52.372;8.990;2023-10-13T10:12:38;20.40;99.90
12111;DHT22;6119;52.372;8.990;2023-10-13T10:15:29;20.40;99.90
12111;DHT22;6119;52.372;8.990;2023-10-13T10:18:20;20.50;99.90
12111;DHT22;6119;52.372;8.990;2023-10-13T10:21:09;20.50;99.90
12111;DHT22;6119;52.372;8.990;2023-10-13T10:23:56;20.70;99.90
12111;DHT22;6119;52.372;8.990;2023-10-13T10:26:50;20.80;99.90
12111;DHT22;6119;52.372;8.990;2023-10-13T10:29:38;20.90;99.90
12111;DHT22;6119;52.372;8.990;2023-10-13T10:32:35;21.00;99.90
12111;DHT22;6119;52.372;8.990;2023-10-13T10:35:23;21.00;99.90
12111;DHT22;6119;52.372;8.990;2023-10-13T10:38:15;21.10;99.90
12111;DHT22;6119;52.372;8.990;2023-10-13T10:41:09;21.20;99.90
12111;DHT22;6119;52.372;8.990;2023-10-13T10:43:59;21.20;99.90
12111;DHT22;6119;52.372;8.990;2023-10-13T10:46:48;21.20;99.90
12111;DHT22;6119;52.372;8.990;2023-10-13T10:49:43;21.30;99.90
12111;DHT22;6119;52.372;8.990;2023-10-13T10:52:30;21.40;99.90
12111;DHT22;6119;52.372;8.990;2023-10-13T10:55:24;21.40;99.90
12111;DHT22;6119;52.372;8.990;2023-10-13T10:58:14;21.60;99.90
12111;DHT22;6119;52.372;8.990;2023-10-13T11:01:15;21.50;99.90
12111;DHT22;6119;52.372;8.990;2023-10-13T11:04:07;21.60;99.90
12111;DHT22;6119;52.372;8.990;2023-10-13T11:07:01;21.60;99.90
12111;DHT22;6119;52.372;8.990;2023-10-13T11:09:48;21.60;99.90
12111;DHT22;6119;52.372;8.990;2023-10-13T11:12:39;21.90;99.90
12111;DHT22;6119;52.372;8.990;2023-10-13T11:15:28;22.10;99.90
12111;DHT22;6119;52.372;8.990;2023-10-13T11:18:29;22.00;99.90
12111;DHT22;6119;52.372;8.990;2023-10-13T11:21:19;22.00;99.90
12111;DHT22;6119;52.372;8.990;2023-10-13T11:24:08;22.00;99.90
12111;DHT22;6119;52.372;8.990;2023-10-13T11:26:55;22.00;99.90
12111;DHT22;6119;52.372;8.990;2023-10-13T11:29:44;22.10;99.90
12111;DHT22;6119;52.372;8.990;2023-10-13T11:32:37;22.20;99.90
12111;DHT22;6119;52.372;8.990;2023-10-13T11:35:27;22.40;99.90
12111;DHT22;6119;52.372;8.990;2023-10-13T11:38:35;22.70;99.90
12111;DHT22;6119;52.372;8.990;2023-10-13T11:41:29;22.80;99.90
12111;DHT22;6119;52.372;8.990;2023-10-13T11:44:21;22.90;99.90
12111;DHT22;6119;52.372;8.990;2023-10-13T11:47:17;23.00;99.90
12111;DHT22;6119;52.372;8.990;2023-10-13T11:50:33;23.10;99.90
12111;DHT22;6119;52.372;8.990;2023-10-13T11:53:20;23.20;99.90
12111;DHT22;6119;52.372;8.990;2023-10-13T11:56:09;23.30;99.90
12111;DHT22;6119;52.372;8.990;2023-10-13T11:58:55;23.20;99.90
12111;DHT22;6119;52.372;8.990;2023-10-13T12:01:47;23.10;99.90
12111;DHT22;6119;52.372;8.990;2023-10-13T12:04:53;23.00;99.90
12111;DHT22;6119;52.372;8.990;2023-10-13T12:07:42;23.00;99.90
12111;DHT22;6119;52.372;8.990;2023-10-13T12:10:34;23.00;99.90
12111;DHT22;6119;52.372;8.990;2023-10-13T12:13:25;22.90;99.90
12111;DHT22;6119;52.372;8.990;2023-10-13T12:16:12;22.90;99.90
12111;DHT22;6119;52.372;8.990;2023-10-13T12:18:58;22.90;99.90
12111;DHT22;6119;52.372;8.990;2023-10-13T12:21:48;22.80;99.90
12111;DHT22;6119;52.372;8.990;2023-10-13T12:24:35;22.90;99.90
12111;DHT22;6119;52.372;8.990;2023-10-13T12:27:27;22.90;99.90
12111;DHT22;6119;52.372;8.990;2023-10-13T12:30:20;22.90;99.90
12111;DHT22;6119;52.372;8.990;2023-10-13T12:33:28;23.00;99.90
12111;DHT22;6119;52.372;8.990;2023-10-13T12:36:22;23.10;99.90
12111;DHT22;6119;52.372;8.990;2023-10-13T12:39:27;23.30;99.90
12111;DHT22;6119;52.372;8.990;2023-10-13T12:42:28;23.50;99.90
12111;DHT22;6119;52.372;8.990;2023-10-13T12:45:32;23.50;99.90
12111;DHT22;6119;52.372;8.990;2023-10-13T12:48:37;23.40;99.90
12111;DHT22;6119;52.372;8.990;2023-10-13T12:51:49;23.40;99.90
12111;DHT22;6119;52.372;8.990;2023-10-13T12:54:40;23.30;99.90
12111;DHT22;6119;52.372;8.990;2023-10-13T12:57:28;23.20;99.90
12111;DHT22;6119;52.372;8.990;2023-10-13T13:00:16;23.20;99.90
12111;DHT22;6119;52.372;8.990;2023-10-13T13:03:06;23.20;99.90
12111;DHT22;6119;52.372;8.990;2023-10-13T13:05:57;23.20;99.90
12111;DHT22;6119;52.372;8.990;2023-10-13T13:08:44;23.10;99.90
12111;DHT22;6119;52.372;8.990;2023-10-13T13:11:33;23.10;99.90
12111;DHT22;6119;52.372;8.990;2023-10-13T13:14:24;23.10;99.90
12111;DHT22;6119;52.372;8.990;2023-10-13T13:17:15;23.10;99.90
12111;DHT22;6119;52.372;8.990;2023-10-13T13:20:02;23.10;99.90
12111;DHT22;6119;52.372;8.990;2023-10-13T13:22:56;24.00;99.90
12111;DHT22;6119;52.372;8.990;2023-10-13T13:25:48;23.10;99.90
12111;DHT22;6119;52.372;8.990;2023-10-13T13:28:36;23.20;99.90
12111;DHT22;6119;52.372;8.990;2023-10-13T13:31:23;23.20;99.90
12111;DHT22;6119;52.372;8.990;2023-10-13T13:34:14;23.30;99.90
12111;DHT22;6119;52.372;8.990;2023-10-13T13:37:01;23.30;99.90
12111;DHT22;6119;52.372;8.990;2023-10-13T13:39:47;23.30;99.90
12111;DHT22;6119;52.372;8.990;2023-10-13T13:42:38;23.30;99.90
12111;DHT22;6119;52.372;8.990;2023-10-13T13:45:27;23.30;99.90
12111;DHT22;6119;52.372;8.990;2023-10-13T13:48:14;23.30;99.90
12111;DHT22;6119;52.372;8.990;2023-10-13T13:51:03;23.40;99.90
12111;DHT22;6119;52.372;8.990;2023-10-13T13:53:51;23.50;99.90
12111;DHT22;6119;52.372;8.990;2023-10-13T13:56:38;23.60;99.90
12111;DHT22;6119;52.372;8.990;2023-10-13T13:59:25;23.70;99.90
12111;DHT22;6119;52.372;8.990;2023-10-13T14:02:13;23.80;99.90
12111;DHT22;6119;52.372;8.990;2023-10-13T14:05:06;24.00;99.90
12111;DHT22;6119;52.372;8.990;2023-10-13T14:08:01;24.00;99.90
12111;DHT22;6119;52.372;8.990;2023-10-13T14:10:50;24.10;99.90
12111;DHT22;6119;52.372;8.990;2023-10-13T14:13:54;24.10;99.90
12111;DHT22;6119;52.372;8.990;2023-10-13T14:16:42;24.20;99.90
12111;DHT22;6119;52.372;8.990;2023-10-13T14:19:33;24.10;99.90
12111;DHT22;6119;52.372;8.990;2023-10-13T14:22:20;24.10;99.90
12111;DHT22;6119;52.372;8.990;2023-10-13T14:25:11;24.20;99.90
12111;DHT22;6119;52.372;8.990;2023-10-13T14:28:00;24.20;99.90
12111;DHT22;6119;52.372;8.990;2023-10-13T14:30:46;24.20;99.90
12111;DHT22;6119;52.372;8.990;2023-10-13T14:33:33;24.10;99.90
12111;DHT22;6119;52.372;8.990;2023-10-13T14:36:23;24.10;99.90
12111;DHT22;6119;52.372;8.990;2023-10-13T14:39:14;24.10;99.90
12111;DHT22;6119;52.372;8.990;2023-10-13T14:42:01;24.00;99.90
12111;DHT22;6119;52.372;8.990;2023-10-13T14:44:50;24.00;99.90
12111;DHT22;6119;52.372;8.990;2023-10-13T14:47:41;24.00;99.90
12111;DHT22;6119;52.372;8.990;2023-10-13T14:50:27;23.90;99.90
12111;DHT22;6119;52.372;8.990;2023-10-13T14:53:15;23.90;99.90
12111;DHT22;6119;52.372;8.990;2023-10-13T14:56:05;23.90;99.90
12111;DHT22;6119;52.372;8.990;2023-10-13T14:58:54;24.00;99.90
12111;DHT22;6119;52.372;8.990;2023-10-13T15:01:42;24.00;99.90
12111;DHT22;6119;52.372;8.990;2023-10-13T15:04:29;24.00;99.90
12111;DHT22;6119;52.372;8.990;2023-10-13T15:07:18;24.00;99.90
12111;DHT22;6119;52.372;8.990;2023-10-13T15:10:09;23.80;99.90
12111;DHT22;6119;52.372;8.990;2023-10-13T15:13:00;23.80;99.90
12111;DHT22;6119;52.372;8.990;2023-10-13T15:15:47;23.70;99.90
12111;DHT22;6119;52.372;8.990;2023-10-13T15:18:34;23.70;99.90
12111;DHT22;6119;52.372;8.990;2023-10-13T15:21:21;23.60;99.90
12111;DHT22;6119;52.372;8.990;2023-10-13T15:24:09;23.60;99.90
12111;DHT22;6119;52.372;8.990;2023-10-13T15:27:04;23.50;99.90
12111;DHT22;6119;52.372;8.990;2023-10-13T15:29:54;23.50;99.90
12111;DHT22;6119;52.372;8.990;2023-10-13T15:32:40;23.50;99.90
12111;DHT22;6119;52.372;8.990;2023-10-13T15:35:31;23.50;99.90
12111;DHT22;6119;52.372;8.990;2023-10-13T15:38:17;23.50;99.90
12111;DHT22;6119;52.372;8.990;2023-10-13T15:41:06;23.50;99.90
12111;DHT22;6119;52.372;8.990;2023-10-13T15:43:56;23.40;99.90
12111;DHT22;6119;52.372;8.990;2023-10-13T15:46:43;23.40;99.90
12111;DHT22;6119;52.372;8.990;2023-10-13T15:49:54;23.40;99.90
12111;DHT22;6119;52.372;8.990;2023-10-13T15:52:41;23.40;99.90
12111;DHT22;6119;52.372;8.990;2023-10-13T15:55:35;23.30;99.90
12111;DHT22;6119;52.372;8.990;2023-10-13T15:58:23;23.30;99.90
12111;DHT22;6119;52.372;8.990;2023-10-13T16:01:12;23.30;99.90
12111;DHT22;6119;52.372;8.990;2023-10-13T16:04:00;23.30;99.90
12111;DHT22;6119;52.372;8.990;2023-10-13T16:06:56;23.30;99.90
12111;DHT22;6119;52.372;8.990;2023-10-13T16:09:43;23.20;99.90
12111;DHT22;6119;52.372;8.990;2023-10-13T16:12:31;23.20;99.90
12111;DHT22;6119;52.372;8.990;2023-10-13T16:15:18;23.20;99.90
12111;DHT22;6119;52.372;8.990;2023-10-13T16:18:08;23.10;99.90
12111;DHT22;6119;52.372;8.990;2023-10-13T16:20:55;23.10;99.90
12111;DHT22;6119;52.372;8.990;2023-10-13T16:23:42;23.10;99.90
12111;DHT22;6119;52.372;8.990;2023-10-13T16:26:31;23.10;99.90
12111;DHT22;6119;52.372;8.990;2023-10-13T16:29:19;23.10;99.90
12111;DHT22;6119;52.372;8.990;2023-10-13T16:32:05;23.10;99.90
12111;DHT22;6119;52.372;8.990;2023-10-13T16:34:55;23.00;99.90
12111;DHT22;6119;52.372;8.990;2023-10-13T16:37:45;23.00;99.90
12111;DHT22;6119;52.372;8.990;2023-10-13T16:40:32;23.00;99.90
12111;DHT22;6119;52.372;8.990;2023-10-13T16:43:19;23.00;99.90
12111;DHT22;6119;52.372;8.990;2023-10-13T16:46:09;22.90;99.90
12111;DHT22;6119;52.372;8.990;2023-10-13T16:48:57;22.90;99.90
12111;DHT22;6119;52.372;8.990;2023-10-13T16:51:46;22.90;99.90
12111;DHT22;6119;52.372;8.990;2023-10-13T16:54:35;22.80;99.90
12111;DHT22;6119;52.372;8.990;2023-10-13T16:57:22;22.80;99.90
12111;DHT22;6119;52.372;8.990;2023-10-13T17:00:10;22.80;99.90
12111;DHT22;6119;52.372;8.990;2023-10-13T17:02:58;22.80;99.90
12111;DHT22;6119;52.372;8.990;2023-10-13T17:05:45;22.70;99.90
12111;DHT22;6119;52.372;8.990;2023-10-13T17:08:33;22.70;99.90
12111;DHT22;6119;52.372;8.990;2023-10-13T17:11:21;22.70;99.90
12111;DHT22;6119;52.372;8.990;2023-10-13T17:14:10;22.70;99.90
12111;DHT22;6119;52.372;8.990;2023-10-13T17:16:56;22.70;99.90
12111;DHT22;6119;52.372;8.990;2023-10-13T17:19:46;22.70;99.90
12111;DHT22;6119;52.372;8.990;2023-10-13T17:22:35;22.70;99.90
12111;DHT22;6119;52.372;8.990;2023-10-13T17:25:24;22.70;99.90
12111;DHT22;6119;52.372;8.990;2023-10-13T17:28:11;22.70;99.90
12111;DHT22;6119;52.372;8.990;2023-10-13T17:31:00;22.60;99.90
12111;DHT22;6119;52.372;8.990;2023-10-13T17:33:47;22.60;99.90
12111;DHT22;6119;52.372;8.990;2023-10-13T17:36:34;22.60;99.90
12111;DHT22;6119;52.372;8.990;2023-10-13T17:39:23;22.50;99.90
12111;DHT22;6119;52.372;8.990;2023-10-13T17:42:13;22.40;99.90
12111;DHT22;6119;52.372;8.990;2023-10-13T17:45:00;22.40;99.90
12111;DHT22;6119;52.372;8.990;2023-10-13T17:47:46;22.30;99.90
12111;DHT22;6119;52.372;8.990;2023-10-13T17:50:33;22.20;99.90
12111;DHT22;6119;52.372;8.990;2023-10-13T17:53:20;22.10;99.90
12111;DHT22;6119;52.372;8.990;2023-10-13T17:56:08;22.10;99.90
12111;DHT22;6119;52.372;8.990;2023-10-13T17:58:59;22.00;99.90
12111;DHT22;6119;52.372;8.990;2023-10-13T18:01:46;21.90;99.90
12111;DHT22;6119;52.372;8.990;2023-10-13T18:04:34;21.80;99.90
12111;DHT22;6119;52.372;8.990;2023-10-13T18:07:21;21.60;99.90
12111;DHT22;6119;52.372;8.990;2023-10-13T18:10:11;21.40;99.90
12111;DHT22;6119;52.372;8.990;2023-10-13T18:12:59;21.40;99.90
12111;DHT22;6119;52.372;8.990;2023-10-13T18:15:47;21.30;99.90
12111;DHT22;6119;52.372;8.990;2023-10-13T18:18:35;21.30;99.90
12111;DHT22;6119;52.372;8.990;2023-10-13T18:21:24;21.20;99.90
12111;DHT22;6119;52.372;8.990;2023-10-13T18:24:12;21.20;99.90
12111;DHT22;6119;52.372;8.990;2023-10-13T18:26:59;21.20;99.90